createdAt,value
2022-08-10T00:00:24.477Z,0.00
2022-08-10T00:01:24.533Z,0.00
2022-08-10T00:02:24.469Z,0.00
2022-08-10T00:03:24.455Z,0.00
2022-08-10T00:04:24.498Z,0.00
2022-08-10T00:05:24.472Z,0.00
2022-08-10T00:06:24.431Z,0.00
2022-08-10T00:07:24.402Z,0.00
2022-08-10T00:08:24.417Z,0.00
2022-08-10T00:09:24.411Z,0.00
2022-08-10T00:10:24.385Z,0.00
2022-08-10T00:11:25.232Z,0.00
2022-08-10T00:12:53.770Z,0.00
2022-08-10T00:13:25.348Z,0.00
2022-08-10T00:14:31.181Z,0.00
2022-08-10T00:15:51.924Z,0.00
2022-08-10T00:16:25.335Z,0.00
2022-08-10T00:17:24.296Z,0.00
2022-08-10T00:18:34.324Z,0.00
2022-08-10T00:19:24.311Z,0.00
2022-08-10T00:20:24.363Z,0.00
2022-08-10T00:21:24.367Z,0.00
2022-08-10T00:22:24.231Z,0.00
2022-08-10T00:23:24.273Z,0.00
2022-08-10T00:24:24.282Z,0.00
2022-08-10T00:25:25.259Z,0.00
2022-08-10T00:26:24.199Z,0.00
2022-08-10T00:27:52.304Z,0.00
2022-08-10T00:28:25.709Z,0.00
2022-08-10T00:29:24.721Z,0.00
2022-08-10T00:30:25.209Z,0.00
2022-08-10T00:31:24.217Z,0.00
2022-08-10T00:32:24.196Z,0.00
2022-08-10T00:33:24.181Z,0.00
2022-08-10T00:34:24.704Z,0.00
2022-08-10T00:35:25.169Z,0.00
2022-08-10T00:36:24.078Z,0.00
2022-08-10T00:37:24.073Z,0.00
2022-08-10T00:38:24.071Z,0.00
2022-08-10T00:39:25.163Z,0.00
2022-08-10T00:40:37.519Z,0.00
2022-08-10T00:41:24.086Z,0.00
2022-08-10T00:42:24.040Z,0.00
2022-08-10T00:43:24.238Z,0.00
2022-08-10T00:44:24.005Z,0.00
2022-08-10T00:45:24.049Z,0.00
2022-08-10T00:46:25.054Z,0.00
2022-08-10T00:47:37.574Z,0.00
2022-08-10T00:48:24.950Z,0.00
2022-08-10T00:49:23.960Z,0.00
2022-08-10T00:50:23.937Z,0.00
2022-08-10T00:51:23.933Z,0.00
2022-08-10T00:52:24.890Z,0.00
2022-08-10T00:53:23.897Z,0.00
2022-08-10T00:54:24.785Z,0.00
2022-08-10T00:55:23.869Z,0.00
2022-08-10T00:56:35.095Z,0.00
2022-08-10T00:57:24.917Z,0.00
2022-08-10T00:58:23.888Z,0.00
2022-08-10T00:59:23.835Z,0.00
2022-08-10T01:00:23.848Z,0.00
2022-08-10T01:02:09.402Z,0.00
2022-08-10T01:02:24.876Z,0.00
2022-08-10T01:04:54.239Z,0.00
2022-08-10T01:04:57.745Z,0.00
2022-08-10T01:05:24.756Z,0.00
2022-08-10T01:06:23.733Z,0.00
2022-08-10T01:07:23.745Z,0.00
2022-08-10T01:08:23.763Z,0.00
2022-08-10T01:09:23.728Z,0.00
2022-08-10T01:10:23.737Z,0.00
2022-08-10T01:11:42.335Z,0.00
2022-08-10T01:12:38.476Z,0.00
2022-08-10T01:13:23.661Z,0.00
2022-08-10T01:14:23.683Z,0.00
2022-08-10T01:15:23.633Z,0.00
2022-08-10T01:16:23.621Z,0.00
2022-08-10T01:17:23.647Z,0.00
2022-08-10T01:18:24.623Z,0.00
2022-08-10T01:19:23.589Z,0.00
2022-08-10T01:20:30.090Z,0.00
2022-08-10T01:21:23.569Z,0.00
2022-08-10T01:22:23.593Z,0.00
2022-08-10T01:23:23.543Z,0.00
2022-08-10T01:24:25.140Z,0.00
2022-08-10T01:25:23.538Z,0.00
2022-08-10T01:26:31.387Z,0.00
2022-08-10T01:27:27.154Z,0.00
2022-08-10T01:28:23.548Z,0.00
2022-08-10T01:30:41.186Z,0.00
2022-08-10T01:31:34.694Z,0.00
2022-08-10T01:32:35.200Z,0.00
2022-08-10T01:33:58.214Z,0.00
2022-08-10T01:34:35.556Z,0.00
2022-08-10T01:35:34.559Z,0.00
2022-08-10T01:36:34.543Z,0.00
2022-08-10T01:37:34.513Z,0.00
2022-08-10T01:38:34.504Z,0.00
2022-08-10T01:39:34.657Z,0.00
2022-08-10T01:40:34.498Z,0.00
2022-08-10T01:41:46.067Z,0.00
2022-08-10T01:42:35.752Z,0.00
2022-08-10T01:43:34.447Z,0.00
2022-08-10T01:44:34.432Z,0.00
2022-08-10T01:45:45.582Z,0.00
2022-08-10T01:46:34.481Z,0.00
2022-08-10T01:47:34.406Z,0.00
2022-08-10T01:48:34.423Z,0.00
2022-08-10T01:49:34.399Z,0.00
2022-08-10T01:50:34.360Z,0.00
2022-08-10T01:51:35.364Z,0.00
2022-08-10T01:52:34.549Z,0.00
2022-08-10T01:53:41.233Z,0.00
2022-08-10T01:54:34.370Z,0.00
2022-08-10T01:55:34.309Z,0.00
2022-08-10T01:56:34.296Z,0.00
2022-08-10T01:57:34.309Z,0.00
2022-08-10T01:58:34.277Z,0.00
2022-08-10T01:59:34.324Z,0.00
2022-08-10T02:00:34.251Z,0.00
2022-08-10T02:01:34.329Z,0.00
2022-08-10T02:02:34.485Z,0.00
2022-08-10T02:03:34.312Z,0.00
2022-08-10T02:04:37.038Z,0.00
2022-08-10T02:05:34.198Z,0.00
2022-08-10T02:06:34.184Z,0.00
2022-08-10T02:07:34.194Z,0.00
2022-08-10T02:08:34.184Z,0.00
2022-08-10T02:09:34.140Z,0.00
2022-08-10T02:10:34.179Z,0.00
2022-08-10T02:12:05.593Z,0.00
2022-08-10T02:12:35.316Z,0.00
2022-08-10T02:13:34.150Z,0.00
2022-08-10T02:16:01.609Z,0.00
2022-08-10T02:16:47.415Z,0.00
2022-08-10T02:17:59.718Z,0.00
2022-08-10T02:18:47.359Z,0.00
2022-08-10T02:19:46.224Z,0.00
2022-08-10T02:20:47.345Z,0.00
2022-08-10T02:22:34.973Z,0.00
2022-08-10T02:22:47.589Z,0.00
2022-08-10T02:23:46.127Z,0.00
2022-08-10T02:24:47.090Z,0.00
2022-08-10T02:25:46.107Z,0.00
2022-08-10T02:26:46.074Z,0.00
2022-08-10T02:27:46.085Z,0.00
2022-08-10T02:28:46.062Z,0.00
2022-08-10T02:29:49.277Z,0.00
2022-08-10T02:30:46.089Z,0.00
2022-08-10T02:31:46.038Z,0.00
2022-08-10T02:32:52.647Z,0.00
2022-08-10T02:33:57.516Z,0.00
2022-08-10T02:34:47.020Z,0.00
2022-08-10T02:35:54.397Z,0.00
2022-08-10T02:36:46.994Z,0.00
2022-08-10T02:37:45.975Z,0.00
2022-08-10T02:38:58.822Z,0.00
2022-08-10T02:39:46.976Z,0.00
2022-08-10T02:45:03.291Z,0.00
2022-08-10T02:45:18.298Z,0.00
2022-08-10T02:45:18.653Z,0.00
2022-08-10T02:45:22.198Z,0.00
2022-08-10T02:45:27.813Z,0.00
2022-08-10T02:45:46.881Z,0.00
2022-08-10T02:46:45.902Z,0.00
2022-08-10T02:47:50.990Z,0.00
2022-08-10T02:48:45.911Z,0.00
2022-08-10T02:49:45.840Z,0.00
2022-08-10T02:50:45.810Z,0.00
2022-08-10T02:52:06.291Z,0.00
2022-08-10T02:52:46.827Z,0.00
2022-08-10T02:53:55.206Z,0.00
2022-08-10T02:54:46.768Z,0.00
2022-08-10T02:55:45.763Z,0.00
2022-08-10T02:56:45.790Z,0.00
2022-08-10T02:58:12.624Z,0.00
2022-08-10T02:58:46.754Z,0.00
2022-08-10T02:59:46.783Z,0.00
2022-08-10T03:00:45.847Z,0.00
2022-08-10T03:01:45.716Z,0.00
2022-08-10T03:02:45.669Z,0.00
2022-08-10T03:03:45.678Z,0.00
2022-08-10T03:04:55.829Z,0.00
2022-08-10T03:05:46.685Z,0.00
2022-08-10T03:06:46.160Z,0.00
2022-08-10T03:07:45.611Z,0.00
2022-08-10T03:08:46.589Z,0.00
2022-08-10T03:09:45.614Z,0.00
2022-08-10T03:10:45.571Z,0.00
2022-08-10T03:12:35.082Z,0.00
2022-08-10T03:12:46.628Z,0.00
2022-08-10T03:13:47.862Z,0.00
2022-08-10T03:14:46.550Z,0.00
2022-08-10T03:15:45.561Z,0.00
2022-08-10T03:16:45.523Z,0.00
2022-08-10T03:17:57.464Z,0.00
2022-08-10T03:18:46.547Z,0.00
2022-08-10T03:20:35.792Z,0.00
2022-08-10T03:20:46.488Z,0.00
2022-08-10T03:21:45.458Z,0.00
2022-08-10T03:22:45.450Z,0.00
2022-08-10T03:23:45.425Z,0.00
2022-08-10T03:24:45.414Z,0.00
2022-08-10T03:25:54.303Z,0.00
2022-08-10T03:26:45.395Z,0.00
2022-08-10T03:27:45.570Z,0.00
2022-08-10T03:28:45.377Z,0.00
2022-08-10T03:30:31.551Z,0.00
2022-08-10T03:30:46.539Z,0.00
2022-08-10T03:31:45.346Z,0.00
2022-08-10T03:32:46.315Z,0.00
2022-08-10T03:33:45.338Z,0.00
2022-08-10T03:34:45.301Z,0.00
2022-08-10T03:36:43.462Z,0.00
2022-08-10T03:36:46.316Z,0.00
2022-08-10T03:37:45.275Z,0.00
2022-08-10T03:38:45.291Z,0.00
2022-08-10T03:39:45.340Z,0.00
2022-08-10T03:40:46.711Z,0.00
2022-08-10T03:41:53.368Z,0.00
2022-08-10T03:42:46.217Z,0.00
2022-08-10T03:43:45.225Z,0.00
2022-08-10T03:44:50.266Z,0.00
2022-08-10T03:45:55.406Z,0.00
2022-08-10T03:46:46.177Z,0.00
2022-08-10T03:47:45.165Z,0.00
2022-08-10T03:48:45.267Z,0.00
2022-08-10T03:49:45.187Z,0.00
2022-08-10T03:50:51.038Z,0.00
2022-08-10T03:51:46.114Z,0.00
2022-08-10T03:52:45.115Z,0.00
2022-08-10T03:54:06.043Z,0.00
2022-08-10T03:54:46.106Z,0.00
2022-08-10T03:56:28.633Z,5.62
2022-08-10T03:56:46.108Z,5.62
2022-08-10T03:57:49.326Z,5.62
2022-08-10T03:58:45.074Z,5.62
2022-08-10T03:59:45.019Z,5.62
2022-08-10T04:00:45.034Z,5.62
2022-08-10T04:02:46.061Z,5.62
2022-08-10T04:02:48.307Z,5.62
2022-08-10T04:03:45.011Z,5.62
2022-08-10T04:04:44.967Z,5.62
2022-08-10T04:05:44.960Z,5.62
2022-08-10T04:06:46.602Z,5.62
2022-08-10T04:07:45.942Z,5.62
2022-08-10T04:08:44.931Z,5.62
2022-08-10T04:09:54.615Z,11.25
2022-08-10T04:10:45.895Z,11.25
2022-08-10T04:11:44.908Z,11.25
2022-08-10T04:12:44.903Z,11.25
2022-08-10T04:13:44.891Z,11.25
2022-08-10T04:14:49.385Z,11.25
2022-08-10T04:15:44.847Z,11.25
2022-08-10T04:16:44.850Z,11.25
2022-08-10T04:17:56.846Z,11.25
2022-08-10T04:18:45.802Z,11.25
2022-08-10T04:19:44.907Z,11.25
2022-08-10T04:20:44.849Z,11.25
2022-08-10T04:21:44.789Z,16.88
2022-08-10T04:22:44.810Z,16.88
2022-08-10T04:23:44.752Z,16.88
2022-08-10T04:24:44.750Z,16.88
2022-08-10T04:25:44.731Z,16.88
2022-08-10T04:26:44.717Z,16.88
2022-08-10T04:27:44.745Z,16.88
2022-08-10T04:28:44.694Z,16.88
2022-08-10T04:29:44.721Z,16.88
2022-08-10T04:30:44.668Z,22.50
2022-08-10T04:31:44.668Z,22.50
2022-08-10T04:32:44.725Z,22.50
2022-08-10T04:33:44.641Z,22.50
2022-08-10T04:34:44.628Z,22.50
2022-08-10T04:35:44.672Z,22.50
2022-08-10T04:36:44.600Z,22.50
2022-08-10T04:37:47.292Z,22.50
2022-08-10T04:38:44.597Z,22.50
2022-08-10T04:39:44.678Z,22.50
2022-08-10T04:40:44.576Z,22.50
2022-08-10T04:41:46.704Z,22.50
2022-08-10T04:42:44.538Z,22.50
2022-08-10T04:43:44.526Z,22.50
2022-08-10T04:44:44.531Z,22.50
2022-08-10T04:45:47.816Z,22.50
2022-08-10T04:46:57.617Z,22.50
2022-08-10T04:47:57.690Z,22.50
2022-08-10T04:49:02.045Z,22.50
2022-08-10T04:49:54.871Z,22.50
2022-08-10T04:50:45.510Z,22.50
2022-08-10T04:51:44.439Z,22.50
2022-08-10T04:52:44.450Z,22.50
2022-08-10T04:54:04.349Z,22.50
2022-08-10T04:54:45.410Z,22.50
2022-08-10T04:55:44.403Z,28.12
2022-08-10T04:56:44.410Z,28.12
2022-08-10T04:57:44.376Z,28.12
2022-08-10T04:58:44.379Z,28.12
2022-08-10T04:59:44.389Z,28.12
2022-08-10T05:00:44.454Z,33.75
2022-08-10T05:02:22.145Z,33.75
2022-08-10T05:02:45.407Z,33.75
2022-08-10T05:04:35.232Z,33.75
2022-08-10T05:04:45.288Z,33.75
2022-08-10T05:05:44.335Z,33.75
2022-08-10T05:06:45.293Z,33.75
2022-08-10T05:07:53.653Z,39.38
2022-08-10T05:08:44.256Z,39.38
2022-08-10T05:10:01.828Z,45.00
2022-08-10T05:10:45.224Z,45.00
2022-08-10T05:11:44.220Z,45.00
2022-08-10T05:12:44.238Z,45.00
2022-08-10T05:13:44.205Z,50.62
2022-08-10T05:14:44.190Z,50.62
2022-08-10T05:15:44.174Z,56.25
2022-08-10T05:16:44.193Z,56.25
2022-08-10T05:18:04.611Z,56.25
2022-08-10T05:18:45.149Z,56.25
2022-08-10T05:20:04.724Z,56.25
2022-08-10T05:20:49.718Z,56.25
2022-08-10T05:21:57.017Z,56.25
2022-08-10T05:22:45.129Z,56.25
2022-08-10T05:23:44.109Z,56.25
2022-08-10T05:24:44.071Z,56.25
2022-08-10T05:25:44.063Z,56.25
2022-08-10T05:26:57.195Z,56.25
2022-08-10T05:27:45.063Z,56.25
2022-08-10T05:28:44.028Z,56.25
2022-08-10T05:29:44.086Z,56.25
2022-08-10T05:30:44.993Z,56.25
2022-08-10T05:31:43.999Z,56.25
2022-08-10T05:32:57.755Z,56.25
2022-08-10T05:33:44.964Z,56.25
2022-08-10T05:34:43.953Z,56.25
2022-08-10T05:35:57.717Z,50.62
2022-08-10T05:36:44.030Z,50.62
2022-08-10T05:38:10.158Z,50.62
2022-08-10T05:38:44.917Z,50.62
2022-08-10T05:39:43.940Z,50.62
2022-08-10T05:40:46.469Z,50.62
2022-08-10T05:41:46.877Z,50.62
2022-08-10T05:42:43.862Z,56.25
2022-08-10T05:43:43.879Z,56.25
2022-08-10T05:44:43.849Z,56.25
2022-08-10T05:46:16.948Z,56.25
2022-08-10T05:46:44.820Z,50.62
2022-08-10T05:48:54.865Z,50.62
2022-08-10T05:48:59.624Z,50.62
2022-08-10T05:49:44.843Z,50.62
2022-08-10T05:50:43.771Z,50.62
2022-08-10T05:51:43.786Z,50.62
2022-08-10T05:52:43.747Z,56.25
2022-08-10T05:54:01.648Z,56.25
2022-08-10T05:54:44.720Z,56.25
2022-08-10T05:55:43.781Z,56.25
2022-08-10T05:56:55.207Z,56.25
2022-08-10T05:57:44.693Z,61.88
2022-08-10T05:58:43.684Z,61.88
2022-08-10T06:00:33.034Z,61.88
2022-08-10T06:00:49.677Z,61.88
2022-08-10T06:01:43.675Z,61.88
2022-08-10T06:02:44.862Z,61.88
2022-08-10T06:03:43.632Z,61.88
2022-08-10T06:04:43.618Z,61.88
2022-08-10T06:05:43.635Z,61.88
2022-08-10T06:06:43.582Z,61.88
2022-08-10T06:07:43.578Z,61.88
2022-08-10T06:08:43.601Z,61.88
2022-08-10T06:09:59.734Z,61.88
2022-08-10T06:12:26.062Z,61.88
2022-08-10T06:12:26.455Z,61.88
2022-08-10T06:12:54.936Z,61.88
2022-08-10T06:14:00.058Z,67.50
2022-08-10T06:14:44.495Z,67.50
2022-08-10T06:15:52.194Z,67.50
2022-08-10T06:16:43.472Z,67.50
2022-08-10T06:17:43.458Z,73.12
2022-08-10T06:18:43.449Z,73.12
2022-08-10T06:19:43.439Z,73.12
2022-08-10T06:20:43.439Z,73.12
2022-08-10T06:21:54.413Z,73.12
2022-08-10T06:22:44.407Z,73.12
2022-08-10T06:23:43.400Z,73.12
2022-08-10T06:25:10.031Z,73.12
2022-08-10T06:26:08.524Z,73.12
2022-08-10T06:26:44.378Z,73.12
2022-08-10T06:27:43.372Z,73.12
2022-08-10T06:28:43.343Z,73.12
2022-08-10T06:29:44.340Z,78.75
2022-08-10T06:30:43.324Z,78.75
2022-08-10T06:31:46.951Z,78.75
2022-08-10T06:32:44.306Z,78.75
2022-08-10T06:33:43.324Z,73.12
2022-08-10T06:34:43.271Z,78.75
2022-08-10T06:35:43.304Z,78.75
2022-08-10T06:36:43.284Z,78.75
2022-08-10T06:37:43.239Z,78.75
2022-08-10T06:38:43.233Z,84.38
2022-08-10T06:39:43.270Z,95.62
2022-08-10T06:40:43.207Z,101.25
2022-08-10T06:42:14.770Z,106.88
2022-08-10T06:42:44.205Z,106.88
2022-08-10T06:43:43.171Z,106.88
2022-08-10T06:44:43.157Z,101.25
2022-08-10T06:45:43.170Z,101.25
2022-08-10T06:46:46.516Z,106.88
2022-08-10T06:47:44.140Z,112.50
2022-08-10T06:48:43.108Z,112.50
2022-08-10T06:49:43.102Z,95.62
2022-08-10T06:50:55.985Z,101.25
2022-08-10T06:51:44.121Z,84.38
2022-08-10T06:52:43.085Z,95.62
2022-08-10T06:53:53.846Z,84.38
2022-08-10T06:54:44.048Z,90.00
2022-08-10T06:55:55.485Z,101.25
2022-08-10T06:57:01.784Z,101.25
2022-08-10T06:57:44.035Z,101.25
2022-08-10T06:58:43.005Z,101.25
2022-08-10T06:59:42.992Z,101.25
2022-08-10T07:00:43.007Z,95.62
2022-08-10T07:01:42.991Z,78.75
2022-08-10T07:02:44.021Z,78.75
2022-08-10T07:03:42.944Z,95.62
2022-08-10T07:04:42.981Z,101.25
2022-08-10T07:05:43.218Z,84.38
2022-08-10T07:06:42.935Z,95.62
2022-08-10T07:07:42.905Z,78.75
2022-08-10T07:08:42.928Z,78.75
2022-08-10T07:09:42.879Z,78.75
2022-08-10T07:10:46.359Z,95.62
2022-08-10T07:11:42.881Z,95.62
2022-08-10T07:12:42.852Z,95.62
2022-08-10T07:14:16.687Z,90.00
2022-08-10T07:14:43.851Z,90.00
2022-08-10T07:15:57.312Z,90.00
2022-08-10T07:16:43.804Z,90.00
2022-08-10T07:17:42.795Z,84.38
2022-08-10T07:18:42.813Z,84.38
2022-08-10T07:19:50.047Z,90.00
2022-08-10T07:20:42.806Z,90.00
2022-08-10T07:21:42.757Z,90.00
2022-08-10T07:23:01.412Z,84.38
2022-08-10T07:23:56.905Z,84.38
2022-08-10T07:24:43.713Z,84.38
2022-08-10T07:25:42.700Z,84.38
2022-08-10T07:26:42.723Z,84.38
2022-08-10T07:28:00.460Z,84.38
2022-08-10T07:28:47.870Z,84.38
2022-08-10T07:29:53.329Z,84.38
2022-08-10T07:30:43.672Z,84.38
2022-08-10T07:31:55.418Z,84.38
2022-08-10T07:32:43.654Z,84.38
2022-08-10T07:33:42.625Z,84.38
2022-08-10T07:34:42.605Z,84.38
2022-08-10T07:35:43.762Z,84.38
2022-08-10T07:36:42.584Z,84.38
2022-08-10T07:37:42.571Z,84.38
2022-08-10T07:38:42.586Z,90.00
2022-08-10T07:39:58.499Z,84.38
2022-08-10T07:40:43.637Z,90.00
2022-08-10T07:41:42.549Z,84.38
2022-08-10T07:42:45.887Z,84.38
2022-08-10T07:43:42.509Z,84.38
2022-08-10T07:44:42.516Z,90.00
2022-08-10T07:45:42.535Z,90.00
2022-08-10T07:46:42.476Z,95.62
2022-08-10T07:47:52.758Z,95.62
2022-08-10T07:48:42.477Z,95.62
2022-08-10T07:49:42.446Z,101.25
2022-08-10T07:50:42.429Z,101.25
2022-08-10T07:51:42.455Z,101.25
2022-08-10T07:52:42.408Z,95.62
2022-08-10T07:53:42.428Z,90.00
2022-08-10T07:54:42.390Z,84.38
2022-08-10T07:56:05.147Z,78.75
2022-08-10T07:56:49.232Z,78.75
2022-08-10T07:57:43.352Z,73.12
2022-08-10T07:58:46.383Z,67.50
2022-08-10T07:59:43.348Z,45.00
2022-08-10T08:00:42.320Z,67.50
2022-08-10T08:01:42.369Z,45.00
2022-08-10T08:02:42.304Z,39.38
2022-08-10T08:03:42.303Z,39.38
2022-08-10T08:04:42.282Z,39.38
2022-08-10T08:05:59.181Z,39.38
2022-08-10T08:06:43.262Z,39.38
2022-08-10T08:07:42.287Z,39.38
2022-08-10T08:08:42.262Z,39.38
2022-08-10T08:09:57.752Z,39.38
2022-08-10T08:10:43.213Z,39.38
2022-08-10T08:11:42.216Z,39.38
2022-08-10T08:12:42.414Z,39.38
2022-08-10T08:13:42.209Z,39.38
2022-08-10T08:14:42.212Z,39.38
2022-08-10T08:16:19.923Z,39.38
2022-08-10T08:16:43.156Z,39.38
2022-08-10T08:17:42.159Z,39.38
2022-08-10T08:18:58.346Z,39.38
2022-08-10T08:19:45.992Z,39.38
2022-08-10T08:20:43.137Z,39.38
2022-08-10T08:24:09.974Z,39.38
2022-08-10T08:24:10.786Z,39.38
2022-08-10T08:24:31.364Z,39.38
2022-08-10T08:24:43.460Z,39.38
2022-08-10T08:25:42.046Z,39.38
2022-08-10T08:26:42.073Z,39.38
2022-08-10T08:27:42.045Z,39.38
2022-08-10T08:28:43.016Z,39.38
2022-08-10T08:29:42.635Z,39.38
2022-08-10T08:30:45.693Z,39.38
2022-08-10T08:32:02.173Z,45.00
2022-08-10T08:32:42.967Z,45.00
2022-08-10T08:33:42.872Z,45.00
2022-08-10T08:34:41.963Z,45.00
2022-08-10T08:35:41.947Z,45.00
2022-08-10T08:36:41.927Z,45.00
2022-08-10T08:38:33.086Z,45.00
2022-08-10T08:38:43.595Z,45.00
2022-08-10T08:39:44.162Z,45.00
2022-08-10T08:40:41.884Z,50.62
2022-08-10T08:41:41.922Z,50.62
2022-08-10T08:42:41.861Z,56.25
2022-08-10T08:43:41.869Z,56.25
2022-08-10T08:44:41.883Z,56.25
2022-08-10T08:46:00.684Z,56.25
2022-08-10T08:46:42.821Z,56.25
2022-08-10T08:48:04.830Z,50.62
2022-08-10T08:48:42.811Z,50.62
2022-08-10T08:50:08.129Z,50.62
2022-08-10T08:50:42.848Z,50.62
2022-08-10T08:52:07.868Z,50.62
2022-08-10T08:52:42.756Z,50.62
2022-08-10T08:54:02.747Z,50.62
2022-08-10T08:54:42.807Z,50.62
2022-08-10T08:56:04.155Z,50.62
2022-08-10T08:56:44.823Z,50.62
2022-08-10T08:57:50.401Z,45.00
2022-08-10T08:58:42.715Z,45.00
2022-08-10T08:59:41.678Z,45.00
2022-08-10T09:00:41.663Z,45.00
2022-08-10T09:01:41.939Z,45.00
2022-08-10T09:02:41.653Z,45.00
2022-08-10T09:03:41.637Z,45.00
2022-08-10T09:04:41.615Z,45.00
2022-08-10T09:05:58.292Z,45.00
2022-08-10T09:06:42.610Z,45.00
2022-08-10T09:08:01.885Z,45.00
2022-08-10T09:08:42.578Z,45.00
2022-08-10T09:09:41.564Z,45.00
2022-08-10T09:10:41.567Z,45.00
2022-08-10T09:11:41.580Z,50.62
2022-08-10T09:12:41.553Z,50.62
2022-08-10T09:13:41.526Z,50.62
2022-08-10T09:14:41.549Z,50.62
2022-08-10T09:15:41.753Z,50.62
2022-08-10T09:16:41.496Z,50.62
2022-08-10T09:17:41.473Z,50.62
2022-08-10T09:18:41.469Z,50.62
2022-08-10T09:19:41.457Z,50.62
2022-08-10T09:20:41.560Z,50.62
2022-08-10T09:21:43.241Z,50.62
2022-08-10T09:22:41.423Z,56.25
2022-08-10T09:24:04.940Z,56.25
2022-08-10T09:24:42.426Z,56.25
2022-08-10T09:25:42.375Z,61.88
2022-08-10T09:26:41.370Z,61.88
2022-08-10T09:27:43.192Z,61.88
2022-08-10T09:28:41.357Z,61.88
2022-08-10T09:29:41.340Z,67.50
2022-08-10T09:30:52.391Z,67.50
2022-08-10T09:31:42.361Z,67.50
2022-08-10T09:36:14.940Z,73.12
2022-08-10T09:36:19.794Z,73.12
2022-08-10T09:36:24.063Z,73.12
2022-08-10T09:36:24.755Z,73.12
2022-08-10T09:36:42.533Z,73.12
2022-08-10T09:38:00.968Z,73.12
2022-08-10T09:38:42.267Z,73.12
2022-08-10T09:40:06.755Z,73.12
2022-08-10T09:41:00.848Z,78.75
2022-08-10T09:41:42.252Z,78.75
2022-08-10T09:42:41.223Z,78.75
2022-08-10T09:43:41.181Z,78.75
2022-08-10T09:44:57.958Z,78.75
2022-08-10T09:45:42.185Z,78.75
2022-08-10T09:46:41.199Z,73.12
2022-08-10T09:48:01.394Z,78.75
2022-08-10T09:48:42.138Z,73.12
2022-08-10T09:49:59.712Z,73.12
2022-08-10T09:51:22.758Z,73.12
2022-08-10T09:51:45.721Z,73.12
2022-08-10T09:52:41.089Z,73.12
2022-08-10T09:53:41.097Z,73.12
2022-08-10T09:54:41.088Z,73.12
2022-08-10T09:56:18.636Z,78.75
2022-08-10T09:56:42.041Z,78.75
2022-08-10T09:57:44.048Z,78.75
2022-08-10T09:58:41.053Z,78.75
2022-08-10T10:00:01.754Z,84.38
2022-08-10T10:00:42.024Z,84.38
2022-08-10T10:02:02.399Z,84.38
2022-08-10T10:02:41.972Z,84.38
2022-08-10T10:03:41.041Z,84.38
2022-08-10T10:04:40.953Z,84.38
2022-08-10T10:05:50.285Z,90.00
2022-08-10T10:06:41.952Z,84.38
2022-08-10T10:07:40.922Z,84.38
2022-08-10T10:08:43.082Z,84.38
2022-08-10T10:09:40.924Z,90.00
2022-08-10T10:10:41.161Z,84.38
2022-08-10T10:11:41.906Z,90.00
2022-08-10T10:12:40.859Z,90.00
2022-08-10T10:13:41.657Z,95.62
2022-08-10T10:14:41.878Z,95.62
2022-08-10T10:15:40.827Z,101.25
2022-08-10T10:16:40.828Z,90.00
2022-08-10T10:17:40.889Z,101.25
2022-08-10T10:18:40.829Z,106.88
2022-08-10T10:19:41.165Z,90.00
2022-08-10T10:20:40.787Z,90.00
2022-08-10T10:21:55.798Z,90.00
2022-08-10T10:22:40.772Z,90.00
2022-08-10T10:23:40.745Z,90.00
2022-08-10T10:24:53.567Z,90.00
2022-08-10T10:25:50.315Z,90.00
2022-08-10T10:26:41.812Z,90.00
2022-08-10T10:27:40.822Z,90.00
2022-08-10T10:29:15.391Z,90.00
2022-08-10T10:29:56.309Z,90.00
2022-08-10T10:30:41.740Z,90.00
2022-08-10T10:31:40.679Z,123.75
2022-08-10T10:32:40.750Z,95.62
2022-08-10T10:33:40.633Z,90.00
2022-08-10T10:34:40.646Z,90.00
2022-08-10T10:35:40.632Z,90.00
2022-08-10T10:36:51.444Z,90.00
2022-08-10T10:38:01.756Z,84.38
2022-08-10T10:38:51.476Z,84.38
2022-08-10T10:39:49.742Z,84.38
2022-08-10T10:40:40.710Z,84.38
2022-08-10T10:42:04.047Z,84.38
2022-08-10T10:42:45.241Z,90.00
2022-08-10T10:43:40.560Z,90.00
2022-08-10T10:44:42.446Z,95.62
2022-08-10T10:45:50.323Z,95.62
2022-08-10T10:46:41.555Z,90.00
2022-08-10T10:47:40.479Z,90.00
2022-08-10T10:48:52.854Z,90.00
2022-08-10T10:49:40.583Z,90.00
2022-08-10T10:50:40.527Z,90.00
2022-08-10T10:51:40.849Z,90.00
2022-08-10T10:52:41.392Z,90.00
2022-08-10T10:53:59.217Z,90.00
2022-08-10T10:54:40.581Z,90.00
2022-08-10T10:56:13.365Z,95.62
2022-08-10T10:56:50.454Z,95.62
2022-08-10T10:57:58.114Z,95.62
2022-08-10T10:58:41.413Z,95.62
2022-08-10T10:59:55.694Z,95.62
2022-08-10T11:00:41.415Z,101.25
2022-08-10T11:01:41.344Z,101.25
2022-08-10T11:02:40.315Z,101.25
2022-08-10T11:03:41.309Z,101.25
2022-08-10T11:04:40.339Z,101.25
2022-08-10T11:05:40.287Z,101.25
2022-08-10T11:06:41.276Z,101.25
2022-08-10T11:07:41.322Z,101.25
2022-08-10T11:08:52.151Z,101.25
2022-08-10T11:10:04.935Z,101.25
2022-08-10T11:10:52.824Z,106.88
2022-08-10T11:12:01.856Z,101.25
2022-08-10T11:12:45.718Z,101.25
2022-08-10T11:14:25.410Z,101.25
2022-08-10T11:15:52.463Z,101.25
2022-08-10T11:16:57.309Z,101.25
2022-08-10T11:17:52.317Z,106.88
2022-08-10T11:18:52.466Z,123.75
2022-08-10T11:20:01.842Z,118.12
2022-08-10T11:20:52.224Z,112.50
2022-08-10T11:21:52.248Z,112.50
2022-08-10T11:22:52.191Z,112.50
2022-08-10T11:24:47.742Z,118.12
2022-08-10T11:24:53.167Z,112.50
2022-08-10T11:27:03.389Z,101.25
2022-08-10T11:28:03.318Z,101.25
2022-08-10T11:29:03.393Z,95.62
2022-08-10T11:30:03.483Z,101.25
2022-08-10T11:31:13.397Z,106.88
2022-08-10T11:32:03.424Z,106.88
2022-08-10T11:33:03.580Z,106.88
2022-08-10T11:37:24.499Z,101.25
2022-08-10T11:42:06.533Z,106.88
2022-08-10T11:44:34.465Z,106.88
2022-08-10T11:45:34.410Z,101.25
2022-08-10T11:46:34.471Z,112.50
2022-08-10T11:47:34.197Z,112.50
2022-08-10T11:48:52.898Z,106.88
2022-08-10T11:52:13.319Z,135.00
2022-08-10T11:53:13.189Z,118.12
2022-08-10T11:54:13.139Z,135.00
2022-08-10T11:55:13.105Z,129.38
2022-08-10T11:56:28.963Z,135.00
2022-08-10T11:57:13.124Z,129.38
2022-08-10T11:58:13.089Z,118.12
2022-08-10T11:59:17.186Z,129.38
2022-08-10T12:00:12.965Z,129.38
2022-08-10T12:01:12.934Z,129.38
2022-08-10T12:02:13.011Z,129.38
2022-08-10T12:03:12.914Z,129.38
2022-08-10T12:04:12.907Z,129.38
2022-08-10T12:05:12.968Z,129.38
2022-08-10T12:06:12.887Z,123.75
2022-08-10T12:10:02.979Z,129.38
2022-08-10T12:11:10.248Z,140.62
2022-08-10T12:12:11.108Z,140.62
2022-08-10T12:13:11.573Z,129.38
2022-08-10T12:20:33.554Z,84.38
2022-08-10T12:21:32.754Z,84.38
2022-08-10T12:22:46.372Z,84.38
2022-08-10T12:23:46.486Z,84.38
2022-08-10T12:24:32.707Z,84.38
2022-08-10T12:25:57.376Z,84.38
2022-08-10T12:26:34.381Z,84.38
2022-08-10T12:27:32.428Z,84.38
2022-08-10T12:28:50.573Z,90.00
2022-08-10T12:29:37.253Z,112.50
2022-08-10T12:31:44.603Z,90.00
2022-08-10T12:32:44.592Z,90.00
2022-08-10T12:36:14.864Z,90.00
2022-08-10T12:36:50.555Z,90.00
2022-08-10T12:37:51.108Z,90.00
2022-08-10T12:39:03.089Z,101.25
2022-08-10T12:39:49.400Z,123.75
2022-08-10T12:40:49.286Z,95.62
2022-08-10T12:41:49.335Z,101.25
2022-08-10T12:43:13.298Z,95.62
2022-08-10T12:44:07.867Z,95.62
2022-08-10T12:45:52.792Z,95.62
2022-08-10T12:46:52.466Z,101.25
2022-08-10T12:48:02.818Z,112.50
2022-08-10T12:48:52.434Z,112.50
2022-08-10T12:50:13.691Z,118.12
2022-08-10T12:50:53.885Z,118.12
2022-08-10T12:52:01.946Z,151.88
2022-08-10T12:52:52.434Z,112.50
2022-08-10T12:53:52.487Z,123.75
2022-08-10T12:54:52.783Z,151.88
2022-08-10T12:55:53.461Z,174.38
2022-08-10T12:56:52.269Z,101.25
2022-08-10T12:57:54.190Z,101.25
2022-08-10T12:59:02.384Z,101.25
2022-08-10T12:59:52.343Z,135.00
2022-08-10T13:01:14.733Z,135.00
2022-08-10T13:02:09.557Z,118.12
2022-08-10T13:02:53.230Z,112.50
2022-08-10T13:04:23.694Z,101.25
2022-08-10T13:04:53.255Z,101.25
2022-08-10T13:06:00.222Z,101.25
2022-08-10T13:06:53.094Z,106.88
2022-08-10T13:08:25.918Z,101.25
2022-08-10T13:08:53.132Z,146.25
2022-08-10T13:09:56.376Z,168.75
2022-08-10T13:10:52.073Z,168.75
2022-08-10T13:12:36.296Z,168.75
2022-08-10T13:12:53.069Z,174.38
2022-08-10T13:13:52.012Z,168.75
2022-08-10T13:14:53.066Z,101.25
2022-08-10T13:15:59.745Z,95.62
2022-08-10T13:16:53.004Z,95.62
2022-08-10T13:18:00.742Z,95.62
2022-08-10T13:19:03.871Z,95.62
2022-08-10T13:20:08.211Z,95.62
2022-08-10T13:21:45.662Z,95.62
2022-08-10T13:22:45.425Z,95.62
2022-08-10T13:24:03.592Z,101.25
2022-08-10T13:25:58.797Z,95.62
2022-08-10T13:27:25.688Z,95.62
2022-08-10T13:28:01.004Z,112.50